createdAt,value
2023-04-21T00:02:00.981Z,99144.40
2023-04-21T00:04:29.753Z,99141.38
2023-04-21T00:07:01.738Z,99142.20
2023-04-21T00:09:30.774Z,99139.45
2023-04-21T00:11:59.352Z,99137.73
2023-04-21T00:14:27.603Z,99137.88
2023-04-21T00:16:55.778Z,99138.26
2023-04-21T00:19:24.036Z,99135.05
2023-04-21T00:21:52.477Z,99135.36
2023-04-21T00:24:20.776Z,99135.41
2023-04-21T00:26:49.084Z,99135.64
2023-04-21T00:29:17.649Z,99137.92
2023-04-21T00:31:46.134Z,99139.50
2023-04-21T00:34:14.566Z,99139.35
2023-04-21T00:36:42.942Z,99138.65
2023-04-21T00:39:11.402Z,99139.35
2023-04-21T00:41:40.253Z,99139.90
2023-04-21T00:44:09.507Z,99139.56
2023-04-21T00:46:38.869Z,99135.06
2023-04-21T00:49:08.076Z,99134.69
2023-04-21T00:51:37.038Z,99135.14
2023-04-21T00:54:06.363Z,99136.61
2023-04-21T00:56:35.800Z,99136.91
2023-04-21T00:59:04.286Z,99138.46
2023-04-21T01:01:34.516Z,99139.41
2023-04-21T01:04:04.228Z,99137.92
2023-04-21T01:06:33.348Z,99135.90
2023-04-21T01:09:02.214Z,99131.83
2023-04-21T01:11:31.893Z,99133.48
2023-04-21T01:14:01.509Z,99132.59
2023-04-21T01:16:30.088Z,99129.10
2023-04-21T01:18:59.380Z,99127.38
2023-04-21T01:21:29.187Z,99122.77
2023-04-21T01:23:57.773Z,99121.41
2023-04-21T01:26:26.323Z,99116.25
2023-04-21T01:28:57.087Z,99113.78
2023-04-21T01:31:27.549Z,99115.79
2023-04-21T01:33:56.003Z,99113.02
2023-04-21T01:36:24.564Z,99110.19
2023-04-21T01:38:54.143Z,99107.02
2023-04-21T01:41:24.049Z,99104.44
2023-04-21T01:43:52.592Z,99103.74
2023-04-21T01:46:21.287Z,99105.05
2023-04-21T01:48:49.721Z,99101.67
2023-04-21T01:51:18.467Z,99101.87
2023-04-21T01:53:46.987Z,99100.70
2023-04-21T01:56:15.673Z,99099.65
2023-04-21T01:58:44.213Z,99093.75
2023-04-21T02:01:12.655Z,99096.88
2023-04-21T02:03:41.309Z,99095.15
2023-04-21T02:06:09.989Z,99092.38
2023-04-21T02:08:38.567Z,99092.52
2023-04-21T02:11:07.038Z,99088.83
2023-04-21T02:13:36.135Z,99087.14
2023-04-21T02:16:13.542Z,99085.21
2023-04-21T02:18:44.855Z,99087.61
2023-04-21T02:21:13.207Z,99084.81
2023-04-21T02:23:41.821Z,99084.07
2023-04-21T02:26:10.537Z,99080.50
2023-04-21T02:28:39.029Z,99081.77
2023-04-21T02:31:07.537Z,99085.60
2023-04-21T02:33:36.281Z,99082.48
2023-04-21T02:36:05.236Z,99083.09
2023-04-21T02:38:33.727Z,99082.92
2023-04-21T02:41:02.205Z,99081.98
2023-04-21T02:43:30.695Z,99081.55
2023-04-21T02:45:59.236Z,99078.88
2023-04-21T02:48:28.638Z,99076.35
2023-04-21T02:50:57.229Z,99077.70
2023-04-21T02:53:25.760Z,99076.89
2023-04-21T02:55:54.477Z,99077.48
2023-04-21T02:58:23.893Z,99075.03
2023-04-21T03:00:52.435Z,99078.71
2023-04-21T03:03:21.932Z,99078.99
2023-04-21T03:05:57.312Z,99080.81
2023-04-21T03:08:26.186Z,99081.02
2023-04-21T03:10:54.573Z,99081.10
2023-04-21T03:13:24.486Z,99080.36
2023-04-21T03:15:52.905Z,99081.25
2023-04-21T03:18:21.452Z,99077.70
2023-04-21T03:20:49.886Z,99076.98
2023-04-21T03:23:18.260Z,99077.36
2023-04-21T03:25:46.814Z,99078.63
2023-04-21T03:28:17.159Z,99074.27
2023-04-21T03:30:45.610Z,99074.80
2023-04-21T03:33:14.099Z,99071.00
2023-04-21T03:35:42.667Z,99073.95
2023-04-21T03:38:11.020Z,99077.81
2023-04-21T03:40:39.480Z,99082.05
2023-04-21T03:43:08.131Z,99078.98
2023-04-21T03:45:36.867Z,99081.83
2023-04-21T03:48:06.059Z,99078.96
2023-04-21T03:50:34.553Z,99076.32
2023-04-21T03:53:02.972Z,99081.09
2023-04-21T03:55:31.380Z,99079.12
2023-04-21T03:57:59.843Z,99080.94
2023-04-21T04:00:28.337Z,99079.03
2023-04-21T04:02:57.720Z,99083.73
2023-04-21T04:05:26.479Z,99087.49
2023-04-21T04:07:55.307Z,99086.17
2023-04-21T04:10:23.654Z,99084.36
2023-04-21T04:12:52.270Z,99083.89
2023-04-21T04:15:20.787Z,99083.23
2023-04-21T04:17:49.285Z,99084.61
2023-04-21T04:20:17.791Z,99084.20
2023-04-21T04:22:46.502Z,99084.61
2023-04-21T04:25:17.169Z,99086.16
2023-04-21T04:27:45.988Z,99086.16
2023-04-21T04:30:15.037Z,99087.29
2023-04-21T04:32:43.998Z,99085.44
2023-04-21T04:35:13.337Z,99082.60
2023-04-21T04:37:41.756Z,99083.23
2023-04-21T04:40:12.379Z,99083.84
2023-04-21T04:42:40.961Z,99082.36
2023-04-21T04:45:09.824Z,99082.13
2023-04-21T04:47:38.649Z,99080.74
2023-04-21T04:50:07.646Z,99084.75
2023-04-21T04:52:36.213Z,99083.90
2023-04-21T04:55:04.737Z,99085.56
2023-04-21T04:57:33.670Z,99087.19
2023-04-21T05:00:02.025Z,99085.64
2023-04-21T05:02:30.974Z,99092.58
2023-04-21T05:04:59.702Z,99091.39
2023-04-21T05:07:28.417Z,99089.66
2023-04-21T05:09:57.013Z,99089.98
2023-04-21T05:12:25.515Z,99086.38
2023-04-21T05:14:53.924Z,99087.36
2023-04-21T05:17:22.396Z,99086.09
2023-04-21T05:19:51.192Z,99088.02
2023-04-21T05:22:19.685Z,99090.16
2023-04-21T05:24:48.534Z,99093.80
2023-04-21T05:27:16.989Z,99095.80
2023-04-21T05:29:45.633Z,99093.73
2023-04-21T05:32:14.588Z,99095.63
2023-04-21T05:34:43.307Z,99095.79
2023-04-21T05:37:12.606Z,99093.65
2023-04-21T05:39:40.977Z,99090.27
2023-04-21T05:42:12.644Z,99088.91
2023-04-21T05:44:41.155Z,99088.97
2023-04-21T05:47:09.965Z,99089.59
2023-04-21T05:49:38.428Z,99085.84
2023-04-21T05:52:09.682Z,99086.10
2023-04-21T05:54:38.137Z,99084.19
2023-04-21T05:57:08.715Z,99083.23
2023-04-21T05:59:37.091Z,99084.09
2023-04-21T06:02:05.785Z,99081.84
2023-04-21T06:04:34.453Z,99080.12
2023-04-21T06:07:10.613Z,99084.36
2023-04-21T06:09:39.160Z,99085.44
2023-04-21T06:12:08.016Z,99084.55
2023-04-21T06:14:36.551Z,99086.07
2023-04-21T06:17:05.122Z,99087.91
2023-04-21T06:19:38.508Z,99092.41
2023-04-21T06:22:06.942Z,99091.42
2023-04-21T06:24:36.284Z,99091.35
2023-04-21T06:27:04.796Z,99093.15
2023-04-21T06:29:33.925Z,99087.58
2023-04-21T06:32:02.632Z,99090.68
2023-04-21T06:34:31.330Z,99089.87
2023-04-21T06:36:59.727Z,99092.09
2023-04-21T06:39:28.434Z,99098.31
2023-04-21T06:41:58.319Z,99094.71
2023-04-21T06:44:28.619Z,99096.49
2023-04-21T06:46:56.998Z,99093.35
2023-04-21T06:49:25.651Z,99092.34
2023-04-21T06:51:54.076Z,99092.04
2023-04-21T06:54:23.439Z,99090.33
2023-04-21T06:56:52.092Z,99090.79
2023-04-21T06:59:20.893Z,99092.52
2023-04-21T07:01:52.474Z,99088.30
2023-04-21T07:04:21.625Z,99086.84
2023-04-21T07:06:50.272Z,99085.61
2023-04-21T07:09:19.369Z,99086.35
2023-04-21T07:11:47.920Z,99088.54
2023-04-21T07:14:16.345Z,99086.65
2023-04-21T07:16:44.744Z,99091.31
2023-04-21T07:19:13.169Z,99090.96
2023-04-21T07:21:41.601Z,99090.66
2023-04-21T07:24:10.210Z,99088.95
2023-04-21T07:26:38.746Z,99087.38
2023-04-21T07:29:07.155Z,99087.90
2023-04-21T07:31:36.471Z,99090.47
2023-04-21T07:34:05.217Z,99088.27
2023-04-21T07:36:33.940Z,99093.64
2023-04-21T07:39:04.185Z,99091.86
2023-04-21T07:41:34.211Z,99093.34
2023-04-21T07:44:02.790Z,99095.94
2023-04-21T07:46:32.295Z,99097.36
2023-04-21T07:49:03.603Z,99097.61
2023-04-21T07:51:33.298Z,99097.34
2023-04-21T07:54:02.123Z,99099.11
2023-04-21T07:56:31.608Z,99103.05
2023-04-21T07:58:59.967Z,99103.06
2023-04-21T08:01:28.585Z,99101.42
2023-04-21T08:03:57.130Z,99100.45
2023-04-21T08:06:25.989Z,99097.23
2023-04-21T08:08:56.199Z,99099.98
2023-04-21T08:11:24.734Z,99097.00
2023-04-21T08:13:53.672Z,99100.29
2023-04-21T08:16:22.093Z,99097.90
2023-04-21T08:18:50.578Z,99097.29
2023-04-21T08:21:20.013Z,99094.81
2023-04-21T08:23:48.813Z,99095.00
2023-04-21T08:26:17.470Z,99095.02
2023-04-21T08:28:46.100Z,99091.29
2023-04-21T08:31:14.547Z,99086.14
2023-04-21T08:33:53.912Z,99091.23
2023-04-21T08:36:29.831Z,99089.84
2023-04-21T08:38:59.172Z,99089.35
2023-04-21T08:41:28.049Z,99088.11
2023-04-21T08:43:56.776Z,99089.12
2023-04-21T08:46:25.652Z,99088.91
2023-04-21T08:48:55.375Z,99086.84
2023-04-21T08:51:24.582Z,99084.79
2023-04-21T08:53:54.528Z,99084.14
2023-04-21T08:56:25.053Z,99089.67
2023-04-21T08:58:54.086Z,99088.91
2023-04-21T09:01:22.597Z,99089.78
2023-04-21T09:03:51.445Z,99089.98
2023-04-21T09:06:20.686Z,99094.02
2023-04-21T09:08:58.099Z,99088.64
2023-04-21T09:11:26.466Z,99085.89
2023-04-21T09:13:57.192Z,99083.55
2023-04-21T09:16:25.987Z,99083.07
2023-04-21T09:18:54.612Z,99086.55
2023-04-21T09:21:23.416Z,99089.73
2023-04-21T09:23:55.905Z,99088.85
2023-04-21T09:26:24.441Z,99087.83
2023-04-21T09:28:53.261Z,99089.77
2023-04-21T09:31:26.176Z,99091.16
2023-04-21T09:33:59.381Z,99090.12
2023-04-21T09:36:31.026Z,99086.61
2023-04-21T09:39:29.206Z,99084.69
2023-04-21T09:41:51.593Z,99089.09
2023-04-21T09:44:20.875Z,99091.05
2023-04-21T09:46:51.377Z,99090.23
2023-04-21T09:49:19.878Z,99094.13
2023-04-21T09:52:14.785Z,99090.30
2023-04-21T09:54:37.232Z,99091.90
2023-04-21T09:57:05.981Z,99089.02
2023-04-21T09:59:38.166Z,99089.24
2023-04-21T10:02:08.222Z,99092.31
2023-04-21T10:04:37.495Z,99092.89
2023-04-21T10:07:06.667Z,99089.52
2023-04-21T10:09:42.194Z,99090.98
2023-04-21T10:12:10.633Z,99090.58
2023-04-21T10:14:39.678Z,99092.77
2023-04-21T10:17:11.294Z,99089.27
2023-04-21T10:19:48.823Z,99091.25
2023-04-21T10:22:27.941Z,99091.50
2023-04-21T10:24:57.409Z,99088.18
2023-04-21T10:27:36.036Z,99087.31
2023-04-21T10:30:23.689Z,99089.63
2023-04-21T10:33:07.653Z,99088.80
2023-04-21T10:36:01.710Z,99089.67
2023-04-21T10:38:41.553Z,99085.56
2023-04-21T10:41:29.348Z,99091.57
2023-04-21T10:44:19.268Z,99089.07
2023-04-21T10:46:49.028Z,99088.98
2023-04-21T10:49:24.298Z,99093.40
2023-04-21T10:52:02.836Z,99094.92
2023-04-21T10:54:42.219Z,99087.27
2023-04-21T10:57:11.810Z,99087.24
2023-04-21T10:59:40.436Z,99086.73
2023-04-21T11:02:11.526Z,99087.48
2023-04-21T11:04:45.548Z,99087.27
2023-04-21T11:07:16.857Z,99089.80
2023-04-21T11:09:46.548Z,99086.66
2023-04-21T11:12:16.565Z,99088.23
2023-04-21T11:14:48.034Z,99085.19
2023-04-21T11:17:17.968Z,99085.95
2023-04-21T11:19:53.922Z,99085.88
2023-04-21T11:22:24.893Z,99086.49
2023-04-21T11:24:57.392Z,99088.34
2023-04-21T11:27:30.102Z,99088.29
2023-04-21T11:29:58.556Z,99084.58
2023-04-21T11:32:26.917Z,99088.14
2023-04-21T11:34:55.291Z,99085.66
2023-04-21T11:37:28.078Z,99085.54
2023-04-21T11:39:59.949Z,99090.41
2023-04-21T11:42:28.751Z,99086.35
2023-04-21T11:44:57.324Z,99087.95
2023-04-21T11:47:27.036Z,99088.94
2023-04-21T11:49:59.445Z,99088.33
2023-04-21T11:52:33.493Z,99090.45
2023-04-21T11:55:03.772Z,99092.23
2023-04-21T11:57:32.950Z,99088.05
2023-04-21T12:00:02.384Z,99091.45
2023-04-21T12:02:33.913Z,99091.11
2023-04-21T12:05:10.440Z,99093.19
2023-04-21T12:07:42.224Z,99095.57
2023-04-21T12:10:12.242Z,99094.61
2023-04-21T12:12:41.902Z,99096.23
2023-04-21T12:15:11.320Z,99096.25
2023-04-21T12:17:44.053Z,99095.45
2023-04-21T12:20:13.329Z,99098.56
2023-04-21T12:22:41.693Z,99098.13
2023-04-21T12:25:10.117Z,99095.48
2023-04-21T12:27:38.925Z,99095.66
2023-04-21T12:30:08.128Z,99097.01
2023-04-21T12:32:36.870Z,99096.30
2023-04-21T12:35:05.545Z,99095.95
2023-04-21T12:37:34.026Z,99092.48
2023-04-21T12:40:02.463Z,99093.73
2023-04-21T12:42:31.389Z,99089.55
2023-04-21T12:44:59.823Z,99095.91
2023-04-21T12:47:28.341Z,99091.33
2023-04-21T12:49:57.073Z,99091.23
2023-04-21T12:52:25.540Z,99092.02
2023-04-21T12:54:53.854Z,99092.67
2023-04-21T12:57:22.439Z,99088.48
2023-04-21T12:59:51.091Z,99088.34
2023-04-21T13:02:19.966Z,99088.70
2023-04-21T13:04:48.577Z,99088.92
2023-04-21T13:07:19.357Z,99090.16
2023-04-21T13:09:47.647Z,99089.54
2023-04-21T13:12:19.030Z,99089.23
2023-04-21T13:14:47.379Z,99090.51
2023-04-21T13:17:16.315Z,99090.69
2023-04-21T13:19:44.973Z,99089.70
2023-04-21T13:22:13.850Z,99084.95
2023-04-21T13:24:42.337Z,99083.33
2023-04-21T13:27:10.695Z,99086.58
2023-04-21T13:29:39.021Z,99083.84
2023-04-21T13:32:07.687Z,99079.20
2023-04-21T13:34:36.965Z,99080.70
2023-04-21T13:37:06.169Z,99083.08
2023-04-21T13:39:35.591Z,99083.61
2023-04-21T13:42:04.254Z,99081.54
2023-04-21T13:44:32.697Z,99085.30
2023-04-21T13:47:01.213Z,99082.04
2023-04-21T13:49:29.705Z,99081.73
2023-04-21T13:51:58.370Z,99086.46
2023-04-21T13:54:27.846Z,99085.95
2023-04-21T13:56:57.604Z,99085.30
2023-04-21T13:59:26.007Z,99087.20
2023-04-21T14:01:54.478Z,99083.25
2023-04-21T14:04:23.128Z,99082.50
2023-04-21T14:06:51.571Z,99085.64
2023-04-21T14:09:20.102Z,99088.76
2023-04-21T14:11:48.480Z,99092.70
2023-04-21T14:14:27.652Z,99092.67
2023-04-21T14:17:05.899Z,99095.11
2023-04-21T14:19:36.616Z,99098.24
2023-04-21T14:22:05.362Z,99103.44
2023-04-21T14:24:34.332Z,99104.26
2023-04-21T14:27:02.614Z,99106.83
2023-04-21T14:29:31.750Z,99113.40
2023-04-21T14:32:00.480Z,99110.81
2023-04-21T14:34:29.028Z,99113.30
2023-04-21T14:36:57.594Z,99116.41
2023-04-21T14:39:25.936Z,99119.27
2023-04-21T14:41:54.158Z,99120.36
2023-04-21T14:44:22.461Z,99122.71
2023-04-21T14:47:01.437Z,99119.17
2023-04-21T14:49:40.778Z,99120.44
2023-04-21T14:52:09.629Z,99119.55
2023-04-21T14:54:40.405Z,99117.64
2023-04-21T14:57:19.676Z,99113.09
2023-04-21T14:59:50.720Z,99115.56
2023-04-21T15:02:19.838Z,99116.33
2023-04-21T15:04:48.573Z,99113.91
2023-04-21T15:07:22.855Z,99115.10
2023-04-21T15:09:52.606Z,99114.85
2023-04-21T15:12:21.412Z,99116.21
2023-04-21T15:14:49.855Z,99115.88
2023-04-21T15:17:18.399Z,99116.11
2023-04-21T15:19:47.296Z,99110.64
2023-04-21T15:22:15.635Z,99115.74
2023-04-21T15:24:44.049Z,99111.54
2023-04-21T15:27:12.619Z,99116.16
2023-04-21T15:29:41.261Z,99117.37
2023-04-21T15:32:09.901Z,99120.66
2023-04-21T15:34:38.310Z,99116.48
2023-04-21T15:37:06.644Z,99115.27
2023-04-21T15:39:35.533Z,99118.45
2023-04-21T15:42:05.095Z,99112.34
2023-04-21T15:44:34.421Z,99116.07
2023-04-21T15:47:02.929Z,99117.33
2023-04-21T15:49:31.761Z,99117.27
2023-04-21T15:52:00.253Z,99120.02
2023-04-21T15:54:28.677Z,99121.08
2023-04-21T15:56:57.842Z,99124.63
2023-04-21T15:59:26.493Z,99123.09
2023-04-21T16:01:57.184Z,99126.02
2023-04-21T16:04:25.801Z,99124.91
2023-04-21T16:06:54.253Z,99130.94
2023-04-21T16:09:22.947Z,99132.23
2023-04-21T16:11:51.636Z,99135.65
2023-04-21T16:14:20.123Z,99130.80
2023-04-21T16:16:48.525Z,99130.73
2023-04-21T16:19:17.454Z,99129.08
2023-04-21T16:21:45.949Z,99130.98
2023-04-21T16:24:15.089Z,99136.52
2023-04-21T16:26:43.416Z,99132.02
2023-04-21T16:29:11.737Z,99139.33
2023-04-21T16:31:40.383Z,99134.82
2023-04-21T16:34:08.839Z,99138.20
2023-04-21T16:36:37.278Z,99137.42
2023-04-21T16:39:06.069Z,99132.12
2023-04-21T16:41:34.967Z,99130.64
2023-04-21T16:44:03.371Z,99131.53
2023-04-21T16:46:31.887Z,99133.44
2023-04-21T16:49:00.486Z,99129.64
2023-04-21T16:51:28.889Z,99129.16
2023-04-21T16:53:57.235Z,99131.88
2023-04-21T16:56:25.825Z,99136.67
2023-04-21T16:58:54.123Z,99136.95
2023-04-21T17:01:22.601Z,99138.59
2023-04-21T17:03:50.890Z,99143.18
2023-04-21T17:06:21.452Z,99146.35
2023-04-21T17:08:50.033Z,99143.12
2023-04-21T17:11:18.363Z,99147.89
2023-04-21T17:13:46.911Z,99149.95
2023-04-21T17:16:15.297Z,99154.96
2023-04-21T17:18:43.733Z,99155.60
2023-04-21T17:21:12.784Z,99155.89
2023-04-21T17:23:41.622Z,99158.28
2023-04-21T17:26:12.425Z,99159.12
2023-04-21T17:28:41.611Z,99160.59
2023-04-21T17:31:15.609Z,99162.94
2023-04-21T17:33:45.231Z,99166.27
2023-04-21T17:36:13.859Z,99167.68
2023-04-21T17:38:43.244Z,99167.36
2023-04-21T17:41:11.827Z,99168.75
2023-04-21T17:43:40.215Z,99167.02
2023-04-21T17:46:08.645Z,99167.27
2023-04-21T17:48:37.826Z,99167.27
2023-04-21T17:51:06.341Z,99168.33
2023-04-21T17:53:35.043Z,99171.77
2023-04-21T17:56:03.334Z,99173.30
2023-04-21T17:58:32.189Z,99171.59
2023-04-21T18:01:00.590Z,99167.85
2023-04-21T18:03:29.245Z,99171.91
2023-04-21T18:05:57.624Z,99176.63
2023-04-21T18:08:26.572Z,99177.02
2023-04-21T18:10:55.232Z,99174.80
2023-04-21T18:13:23.503Z,99179.16
2023-04-21T18:15:51.834Z,99179.18
2023-04-21T18:18:20.319Z,99182.77
2023-04-21T18:20:48.513Z,99175.88
2023-04-21T18:23:16.774Z,99180.21
2023-04-21T18:25:45.178Z,99183.18
2023-04-21T18:28:14.486Z,99182.83
2023-04-21T18:30:43.203Z,99180.11
2023-04-21T18:33:11.909Z,99168.10
2023-04-21T18:35:41.413Z,99172.11
2023-04-21T18:38:11.932Z,99173.85
2023-04-21T18:40:41.113Z,99171.41
2023-04-21T18:43:10.825Z,99172.11
2023-04-21T18:45:39.263Z,99171.79
2023-04-21T18:48:08.039Z,99173.48
2023-04-21T18:50:40.535Z,99168.48
2023-04-21T18:53:09.441Z,99170.34
2023-04-21T18:55:38.054Z,99167.92
2023-04-21T18:58:07.252Z,99170.71
2023-04-21T19:00:39.222Z,99171.96
2023-04-21T19:03:07.946Z,99173.91
2023-04-21T19:05:37.154Z,99166.00
2023-04-21T19:08:05.892Z,99164.16
2023-04-21T19:10:35.854Z,99167.63
2023-04-21T19:13:04.651Z,99164.55
2023-04-21T19:15:32.994Z,99167.30
2023-04-21T19:18:01.433Z,99164.52
2023-04-21T19:20:30.279Z,99166.44
2023-04-21T19:22:58.763Z,99170.41
2023-04-21T19:25:27.096Z,99164.81
2023-04-21T19:27:56.078Z,99165.96
2023-04-21T19:30:24.510Z,99163.39
2023-04-21T19:32:53.066Z,99162.51
2023-04-21T19:35:21.650Z,99160.42
2023-04-21T19:37:50.074Z,99160.58
2023-04-21T19:40:19.496Z,99157.28
2023-04-21T19:42:47.822Z,99162.00
2023-04-21T19:45:16.752Z,99160.55
2023-04-21T19:47:45.359Z,99152.13
2023-04-21T19:50:13.830Z,99155.97
2023-04-21T19:52:42.197Z,99155.67
2023-04-21T19:55:10.461Z,99159.33
2023-04-21T19:57:38.721Z,99159.55
2023-04-21T20:00:09.478Z,99159.21
2023-04-21T20:02:41.536Z,99163.38
2023-04-21T20:05:10.282Z,99157.25
2023-04-21T20:07:39.892Z,99159.78
2023-04-21T20:10:08.958Z,99151.80
2023-04-21T20:12:37.629Z,99152.17
2023-04-21T20:15:06.804Z,99160.52
2023-04-21T20:17:37.135Z,99158.81
2023-04-21T20:20:07.099Z,99165.01
2023-04-21T20:22:36.204Z,99164.61
2023-04-21T20:25:05.037Z,99160.77
2023-04-21T20:27:33.739Z,99162.42
2023-04-21T20:30:02.233Z,99161.47
2023-04-21T20:32:30.929Z,99160.19
2023-04-21T20:34:59.811Z,99167.67
2023-04-21T20:37:28.171Z,99167.91
2023-04-21T20:40:00.500Z,99171.38
2023-04-21T20:42:28.797Z,99171.75
2023-04-21T20:44:57.189Z,99169.87
2023-04-21T20:47:25.656Z,99173.27
2023-04-21T20:49:54.964Z,99170.14
2023-04-21T20:52:23.374Z,99164.94
2023-04-21T20:54:51.790Z,99166.14
2023-04-21T20:57:20.164Z,99163.88
2023-04-21T20:59:48.453Z,99163.54
2023-04-21T21:02:16.818Z,99163.90
2023-04-21T21:04:47.398Z,99163.56
2023-04-21T21:07:15.890Z,99169.09
2023-04-21T21:09:44.329Z,99171.67
2023-04-21T21:12:12.736Z,99174.59
2023-04-21T21:14:41.093Z,99177.66
2023-04-21T21:17:10.387Z,99180.57
2023-04-21T21:19:39.051Z,99181.61
2023-04-21T21:22:07.626Z,99179.02
2023-04-21T21:24:36.264Z,99176.78
2023-04-21T21:27:04.537Z,99183.52
2023-04-21T21:29:34.269Z,99184.37
2023-04-21T21:32:02.850Z,99184.23
2023-04-21T21:34:31.897Z,99188.40
2023-04-21T21:37:00.184Z,99189.60
2023-04-21T21:39:28.396Z,99192.20
2023-04-21T21:41:57.457Z,99191.48
2023-04-21T21:44:25.810Z,99193.16
2023-04-21T21:46:54.402Z,99198.48
2023-04-21T21:49:22.891Z,99198.59
2023-04-21T21:51:53.185Z,99201.08
2023-04-21T21:54:21.573Z,99203.46
2023-04-21T21:56:49.883Z,99205.42
2023-04-21T21:59:18.714Z,99203.80
2023-04-21T22:01:47.013Z,99205.41
2023-04-21T22:04:15.729Z,99206.59
2023-04-21T22:06:45.512Z,99208.53
2023-04-21T22:09:13.916Z,99214.50
2023-04-21T22:11:42.221Z,99214.98
2023-04-21T22:14:21.735Z,99215.38
2023-04-21T22:16:52.881Z,99218.65
2023-04-21T22:19:21.881Z,99216.06
2023-04-21T22:21:50.182Z,99216.45
2023-04-21T22:24:18.566Z,99217.66
2023-04-21T22:26:47.479Z,99216.12
2023-04-21T22:29:15.958Z,99217.73
2023-04-21T22:31:44.368Z,99220.21
2023-04-21T22:34:15.187Z,99222.96
2023-04-21T22:36:43.745Z,99226.10
2023-04-21T22:39:12.086Z,99227.72
2023-04-21T22:41:40.441Z,99220.44
2023-04-21T22:44:09.163Z,99220.20
2023-04-21T22:46:37.975Z,99220.80
2023-04-21T22:49:06.840Z,99224.78
2023-04-21T22:51:36.539Z,99224.94
2023-04-21T22:54:04.883Z,99226.10
2023-04-21T22:56:34.403Z,99226.74
2023-04-21T22:59:02.767Z,99224.48
2023-04-21T23:01:32.505Z,99225.50
2023-04-21T23:04:01.088Z,99226.59
2023-04-21T23:06:29.881Z,99227.17
2023-04-21T23:08:58.154Z,99224.98
2023-04-21T23:11:26.475Z,99227.36
2023-04-21T23:13:54.847Z,99232.04
2023-04-21T23:16:23.280Z,99229.13
2023-04-21T23:18:51.642Z,99228.95
2023-04-21T23:21:20.442Z,99231.33
2023-04-21T23:23:48.922Z,99231.63
2023-04-21T23:26:17.298Z,99230.57
2023-04-21T23:28:45.610Z,99235.38
2023-04-21T23:31:14.120Z,99237.23
2023-04-21T23:33:42.497Z,99236.85
2023-04-21T23:36:10.814Z,99237.81
2023-04-21T23:38:39.242Z,99234.34
2023-04-21T23:41:07.448Z,99232.05
2023-04-21T23:43:37.359Z,99231.88
2023-04-21T23:46:05.789Z,99226.73
2023-04-21T23:48:35.032Z,99232.60
2023-04-21T23:51:03.398Z,99229.70
2023-04-21T23:53:32.160Z,99237.61
2023-04-21T23:56:00.821Z,99238.46
2023-04-21T23:58:29.076Z,99238.85
